Aviation Digital Data Service (ADDS)

Output produced by METARs form (2304 UTC 23 March 2019)
found at http://www.aviationweather.gov/metar/data/
 
Forecast for: OIMM (MASHHAD (AFB/CIV, IR)
Text: TAF OIMM 232300Z 2400/2506 28008KT 8000 NSC
Forecast period: 0000 UTC 24 March 2019 to 0600 UTC 25 March 2019
Forecast type: FROM: standard forecast or significant change
Winds: from the W (280 degrees) at 9 MPH (8 knots; 4.1 m/s)
Visibility: 5 miles (8 km)
Ceiling: unknown
Clouds: missing
Weather: no significant weather forecast for this period
Text: TEMPO 2409/2414 14014KT FEW035TCU SCT035 SCT100
Forecast period: 0900 to 1400 UTC 24 March 2019
Forecast type: TEMPORARY: The following changes expected for less than half the time period
Winds: from the SE (140 degrees) at 16 MPH (14 knots; 7.2 m/s)
Visibility: missing
Ceiling: at least 12,000 feet AGL
Clouds: few clouds at 3500 feet AGL
scattered clouds at 3500 feet AGL
scattered clouds at 10000 feet AGL
Weather: no significant weather forecast for this period